ADDS METAR Data INFO
IDs: Format: Raw Decoded Include TAF

Data at: 0351 UTC 20 Feb 2018

KCBF 200335Z AUTO 36006KT 10SM OVC006 M05/M05 A2984 RMK AO2
KCBF 200315Z AUTO 36006KT 10SM OVC005 M05/M05 A2983 RMK AO2
KCBF 200255Z AUTO 35009KT 10SM OVC005 M05/M05 A2983 RMK AO2
KCBF 200235Z AUTO 33006KT 7SM OVC004 M05/M05 A2985 RMK AO2
KCBF 200215Z AUTO 34007KT 6SM BR OVC004 M06/M05 A2985 RMK AO2
KCBF 200155Z AUTO 34008KT 6SM BR OVC004 M06/M05 A2985 RMK AO2
KCBF 200135Z AUTO 31006KT 6SM BR OVC004 M06/M05 A2987 RMK AO2
KCBF 200115Z AUTO 32008KT 7SM OVC005 M06/M05 A2986 RMK AO2
KCBF 200055Z AUTO 33008G14KT 6SM BR OVC005 M06/M05 A2985 RMK AO2
KCBF 200035Z AUTO 33011KT 6SM BR OVC005 M06/M05 A2984 RMK AO2
KCBF 200015Z AUTO 33010KT 7SM OVC005 M06/M05 A2985 RMK AO2
KCBF 192355Z AUTO 33008G13KT 9SM OVC005 M05/M05 A2985 RMK AO2
KCBF 192335Z AUTO 32010KT 9SM OVC004 M05/M05 A2984 RMK AO2
KCBF 192315Z AUTO 33009G15KT 7SM OVC004 M06/M05 A2983 RMK AO2
KCBF 192255Z AUTO 32012KT 7SM OVC004 M05/M05 A2982 RMK AO2
KCBF 192235Z AUTO 33013KT 5SM BR OVC004 M05/M05 A2980 RMK AO2
KCBF 192215Z AUTO 32011G16KT 6SM BR OVC004 M05/M05 A2982 RMK AO2
KCBF 192155Z AUTO 33014KT 9SM OVC005 M05/M05 A2981 RMK AO2
KCBF 192135Z AUTO 33011G18KT 10SM OVC005 M05/M05 A2981 RMK AO2
KCBF 192115Z AUTO 33012KT 8SM OVC004 M05/M05 A2979 RMK AO2
KCBF 192055Z AUTO 32011KT 7SM OVC004 M05/M05 A2979 RMK AO2
KCBF 192035Z AUTO 32010G15KT 9SM OVC005 M05/M04 A2979 RMK AO2
KCBF 192015Z AUTO 34011KT 10SM OVC004 M05/M05 A2979 RMK AO2
KCBF 191955Z AUTO 34008G15KT 9SM OVC004 M04/M04 A2979 RMK AO2
KCBF 191935Z AUTO 33010KT 9SM OVC004 M04/M04 A2978 RMK AO2
KCBF 191915Z AUTO 32013KT 5SM BR OVC004 M04/M04 A2979 RMK AO2
KCBF 191855Z AUTO 32012G17KT 5SM BR OVC004 M04/M04 A2979 RMK AO2
KCBF 191835Z AUTO 32011G16KT 5SM BR OVC004 M04/M04 A2979 RMK AO2
KCBF 191815Z AUTO 31010G17KT 4SM BR OVC004 M04/M04 A2979 RMK AO2
KCBF 191755Z AUTO 32010KT 5SM BR OVC004 M04/M04 A2979 RMK AO2
KCBF 191735Z AUTO 34013G19KT 9SM OVC005 M04/M04 A2979 RMK AO2
KCBF 191715Z AUTO 34014KT 7SM OVC004 M04/M04 A2979 RMK AO2
KCBF 191655Z AUTO 34011KT 5SM BR OVC004 M04/M04 A2978 RMK AO2
KCBF 191635Z AUTO 34012KT 4SM BR OVC004 M04/M03 A2977 RMK AO2
KCBF 191615Z AUTO 34014G20KT 3SM BR OVC004 M04/M03 A2977 RMK AO2
KCBF 191555Z AUTO 35010G21KT 3SM BR OVC004 M03/M03 A2976 RMK AO2
KCBF 191535Z AUTO 35016G21KT 3SM BR OVC004 M03/M03 A2975 RMK AO2
KCBF 191515Z AUTO 34009G19KT 3SM BR OVC004 M03/M03 A2976 RMK AO2
KCBF 191455Z AUTO 35012G21KT 3SM BR OVC004 M03/M03 A2975 RMK AO2
KCBF 191435Z AUTO 36016G23KT 3SM BR OVC005 M03/M03 A2973 RMK AO2
KCBF 191415Z AUTO 35016G23KT 4SM BR OVC004 M03/M03 A2973 RMK AO2
KCBF 191355Z AUTO 35018G24KT 4SM BR OVC005 M03/M03 A2971 RMK AO2
KCBF 191335Z AUTO 35017G24KT 3SM BR OVC005 M03/M02 A2971 RMK AO2
KCBF 191315Z AUTO 35017G25KT 4SM BR OVC005 M02/M02 A2970 RMK AO2
KCBF 191255Z AUTO 34014G22KT 3SM BR OVC005 M02/M02 A2969 RMK AO2
KCBF 191235Z AUTO 35017G25KT 3SM BR OVC005 M02/M02 A2967 RMK AO2
KCBF 191215Z AUTO 35020G26KT 3SM BR OVC005 M01/M01 A2967 RMK AO2
KCBF 191155Z AUTO 35016G25KT 5SM -RA OVC005 M01/M01 A2967 RMK AO2 P0001
KCBF 191135Z AUTO 35017G26KT 3SM -RA OVC005 M00/M00 A2965 RMK AO2
KCBF 191115Z AUTO 35016G22KT 2 1/2SM -RA OVC004 M00/M00 A2965 RMK AO2
KCBF 191055Z AUTO 35015G20KT 2 1/2SM -RA OVC003 00/00 A2964 RMK AO2 P0001
KCBF 191035Z AUTO 35014KT 2SM -RA OVC003 01/01 A2962 RMK AO2
KCBF 191015Z AUTO 34012KT 2SM -RA OVC003 01/01 A2962 RMK AO2
KCBF 190955Z AUTO 35012KT 2SM -RA OVC002 01/01 A2962 RMK AO2 P0002
KCBF 190935Z AUTO 36014KT 1 3/4SM -RA OVC002 01/01 A2961 RMK AO2
KCBF 190915Z AUTO 36011KT 1 1/2SM -RA OVC002 01/01 A2961 RMK AO2
KCBF 190855Z AUTO 36011KT 1 1/2SM BR OVC002 01/01 A2961 RMK AO2 P0001
KCBF 190835Z AUTO 01010KT 1 1/2SM BR OVC002 01/01 A2961 RMK AO2
KCBF 190815Z AUTO 01011KT 1 1/2SM -RA OVC002 01/01 A2962 RMK AO2
KCBF 190755Z AUTO 36010KT 1 1/4SM -RA OVC002 01/01 A2963 RMK AO2
KCBF 190735Z AUTO 01010KT 1 1/2SM -UP BKN003 OVC008 01/01 A2962 RMK AO2
KCBF 190715Z AUTO 01011KT 2SM BR BKN010 OVC015 01/01 A2963 RMK AO2
KCBF 190655Z AUTO 36010KT 2SM -UP OVC015 01/01 A2963 RMK AO2
KCBF 190635Z AUTO 36010KT 3SM -UP OVC020 01/01 A2964 RMK AO2
KCBF 190615Z AUTO 35008KT 5SM BR OVC022 02/02 A2965 RMK AO2
KCBF 190555Z AUTO 36009KT 10SM OVC022 03/03 A2965 RMK AO2
KCBF 190535Z AUTO 35008KT 10SM OVC022 03/03 A2964 RMK AO2
KCBF 190515Z AUTO 33007KT 10SM OVC022 06/06 A2964 RMK AO2
KCBF 190455Z AUTO 35007KT 10SM BKN023 OVC032 07/07 A2963 RMK AO2
KCBF 190435Z AUTO 17007KT 10SM BKN023 BKN036 BKN044 07/07 A2963 RMK AO2
KCBF 190415Z AUTO 15007KT 10SM FEW023 FEW045 06/06 A2963 RMK AO2
KCBF 190355Z AUTO 17007KT 10SM SCT023 06/06 A2963 RMK AO2
KCBF 190335Z AUTO 17010KT 10SM CLR 06/06 A2963 RMK AO2
KCBF 190315Z AUTO 17008KT 10SM CLR 06/05 A2963 RMK AO2
KCBF 190255Z AUTO 16008KT 10SM CLR 06/05 A2963 RMK AO2
KCBF 190235Z AUTO 16008KT 10SM CLR 06/04 A2962 RMK AO2
KCBF 190215Z AUTO 13007KT 10SM CLR 05/04 A2962 RMK AO2
KCBF 190155Z AUTO 14009KT 10SM CLR 06/03 A2962 RMK AO2
KCBF 190135Z AUTO 15008KT 10SM CLR 07/03 A2962 RMK AO2
KCBF 190115Z AUTO 16009KT 10SM CLR 07/03 A2961 RMK AO2
KCBF 190055Z AUTO 13006KT 10SM CLR 07/03 A2961 RMK AO2
KCBF 190035Z AUTO 17005KT 10SM CLR 08/03 A2961 RMK AO2
KCBF 190015Z AUTO 18008G13KT 10SM CLR 10/03 A2961 RMK AO2
KCBF 182355Z AUTO 18010KT 10SM CLR 09/02 A2959 RMK AO2
KCBF 182335Z AUTO 17008KT 10SM CLR 10/01 A2960 RMK AO2
KCBF 182315Z AUTO 17008KT 10SM CLR 11/01 A2959 RMK AO2
KCBF 182255Z AUTO 19011KT 10SM CLR 12/01 A2960 RMK AO2
KCBF 182235Z AUTO 20014G22KT 10SM CLR 12/01 A2959 RMK AO2
KCBF 182215Z AUTO 20017G25KT 10SM CLR 12/01 A2959 RMK AO2
KCBF 182155Z AUTO 20015G27KT 10SM CLR 12/01 A2958 RMK AO2
KCBF 182135Z AUTO 20015G22KT 10SM CLR 13/01 A2959 RMK AO2
KCBF 182115Z AUTO 20015G22KT 10SM CLR 13/M00 A2958 RMK AO2
KCBF 182055Z AUTO 20017G28KT 10SM CLR 12/M01 A2957 RMK AO2
KCBF 182035Z AUTO 19023G33KT 10SM CLR 12/M01 A2957 RMK AO2
KCBF 182015Z AUTO 19023G36KT 10SM CLR 13/M01 A2959 RMK AO2
KCBF 181955Z AUTO 19020G33KT 10SM CLR 13/M02 A2961 RMK AO2
KCBF 181935Z AUTO 19026G34KT 10SM CLR 13/M03 A2961 RMK AO2
KCBF 181915Z AUTO 19022G40KT 10SM CLR 13/M03 A2964 RMK AO2
KCBF 181855Z AUTO 19030G39KT 10SM CLR 12/M03 A2965 RMK AO2
KCBF 181835Z AUTO 19025G38KT 10SM CLR 11/M02 A2967 RMK AO2
KCBF 181815Z AUTO 19028G38KT 10SM CLR 11/M02 A2968 RMK AO2
KCBF 181755Z AUTO 18024G32KT 10SM CLR 10/M01 A2971 RMK AO2
KCBF 181735Z AUTO 18023G32KT 10SM CLR 10/M01 A2973 RMK AO2
KCBF 181715Z AUTO 18025G38KT 10SM CLR 09/00 A2974 RMK AO2
KCBF 181655Z AUTO 18025G37KT 10SM CLR 09/01 A2977 RMK AO2
KCBF 181635Z AUTO 18025G36KT 10SM CLR 08/01 A2977 RMK AO2
KCBF 181615Z AUTO 19022G42KT 10SM CLR 08/01 A2979 RMK AO2
KCBF 181555Z AUTO 19024G35KT 10SM CLR 07/01 A2980 RMK AO2